Time;durP1;ratioP1;P1;durP2;ratioP2;P2;SDS_P1;SDS_P2;PMS_P1;PMS_P2;Temp;Humidity;BMP_temperature;BMP_pressure;BME280_temperature;BME280_humidity;BME280_pressure;Samples;Min_cycle;Max_cycle;Signal;HPM_P1;HPM_P2
2022/02/08 00:00:24;;;;;;;2.93;0.93;;;;;;;3.70;71.87;100164.75;5120271;27;43062;-82
2022/02/08 00:02:55;;;;;;;2.07;0.70;;;;;;;3.85;72.17;100184.63;5120365;27;39185;-84
2022/02/08 09:03:55;;;;;;;1.33;1.00;;;;;;;4.83;100.00;100174.28;5171964;27;20582;-84
2022/02/08 09:06:23;;;;;;;0.90;0.83;;;;;;;5.33;100.00;100186.44;5139447;27;38958;-83
2022/02/08 09:08:51;;;;;;;1.13;0.80;;;;;;;5.60;95.68;100142.09;5136441;27;41493;-82
2022/02/08 09:11:48;;;;;;;1.30;0.87;;;;;;;6.15;91.61;100151.41;5135890;27;41349;-83
2022/02/08 09:14:15;;;;;;;0.73;0.73;;;;;;;6.70;88.33;100157.00;5140876;27;41158;-84
2022/02/08 09:17:30;;;;;;;1.33;0.73;;;;;;;6.93;84.41;100145.00;5156700;27;39215;-86
2022/02/08 09:28:55;;;;;;;1.73;0.57;;;;;;;7.48;79.69;100132.00;5126767;27;39127;-82
2022/02/08 09:34:24;;;;;;;1.67;0.90;;;;;;;7.91;78.02;100141.28;5134972;27;42819;-88
2022/02/08 09:36:53;;;;;;;3.97;1.10;;;;;;;7.90;76.84;100134.28;5135077;27;42328;-83
2022/02/08 09:39:21;;;;;;;1.17;0.67;;;;;;;8.23;76.39;100166.63;5135531;27;39952;-87
2022/02/08 09:41:50;;;;;;;3.87;1.47;;;;;;;8.27;76.17;100161.22;5134758;27;43210;-85
2022/02/08 09:44:19;;;;;;;0.77;0.70;;;;;;;8.47;74.95;100172.91;5135660;27;44370;-86
2022/02/08 09:46:47;;;;;;;5.67;1.03;;;;;;;8.48;74.75;100158.81;5134990;27;41282;-82
2022/02/08 09:49:32;;;;;;;1.40;1.20;;;;;;;8.43;74.15;100144.88;5135633;27;39887;-86
2022/02/08 09:52:22;;;;;;;2.57;1.20;;;;;;;8.22;74.30;100112.97;5134374;27;40765;-84
2022/02/08 09:54:54;;;;;;;0.97;0.80;;;;;;;8.58;74.16;100181.34;5135094;27;41878;-84
2022/02/08 09:57:21;;;;;;;1.43;0.70;;;;;;;8.32;73.84;100125.91;5119995;27;40862;-82
2022/02/08 09:59:49;;;;;;;2.33;1.10;;;;;;;8.55;73.69;100186.72;5111810;27;38797;-82
2022/02/08 10:02:23;;;;;;;1.33;0.90;;;;;;;8.56;74.22;100191.94;5127493;27;42650;-82
2022/02/08 10:04:59;;;;;;;1.60;0.80;;;;;;;8.45;74.28;100190.59;5111276;27;43291;-83
2022/02/08 10:07:28;;;;;;;3.37;0.97;;;;;;;8.22;74.87;100163.13;5110523;27;41054;-81
2022/02/08 10:09:56;;;;;;;0.83;0.63;;;;;;;8.32;74.54;100182.19;5110824;27;38998;-82
2022/02/08 10:24:21;;;;;;;1.07;0.70;;;;;;;8.47;74.34;100194.91;5106972;27;42595;-82
2022/02/08 10:27:02;;;;;;;3.63;1.30;;;;;;;8.49;74.74;100200.13;5117467;27;41862;-81
2022/02/08 10:29:39;;;;;;;1.83;1.17;;;;;;;8.55;74.83;100203.44;5133121;27;42906;-80
2022/02/08 10:37:44;;;;;;;2.73;1.33;;;;;;;8.63;74.63;100185.56;5115435;27;42133;-86
2022/02/08 10:40:20;;;;;;;0.90;0.70;;;;;;;8.73;74.30;100201.97;5117349;27;43039;-83
2022/02/08 10:43:15;;;;;;;1.30;0.83;;;;;;;8.77;74.17;100193.03;5134408;27;38780;-82
2022/02/08 10:45:44;;;;;;;2.73;0.80;;;;;;;8.74;74.13;100182.56;5116710;27;41584;-83
2022/02/08 10:48:14;;;;;;;2.20;0.63;;;;;;;8.79;74.05;100188.53;5117111;27;41978;-83
2022/02/08 10:54:03;;;;;;;1.63;0.53;;;;;;;8.81;73.51;100184.06;5116975;27;38802;-84
2022/02/08 10:56:45;;;;;;;0.87;0.50;;;;;;;8.81;73.57;100185.84;5116088;27;42561;-85
2022/02/08 10:59:25;;;;;;;0.87;0.80;;;;;;;8.87;73.89;100189.16;5100115;27;45324;-87
2022/02/08 11:02:02;;;;;;;0.87;0.70;;;;;;;8.90;74.08;100196.97;5099277;27;40936;-84
2022/02/08 11:07:24;;;;;;;2.13;1.13;;;;;;;8.53;73.81;100139.25;5134057;27;41985;-82
2022/02/08 11:10:02;;;;;;;2.10;0.80;;;;;;;8.82;74.15;100182.28;5120870;27;42765;-80
2022/02/08 11:12:50;;;;;;;0.70;0.60;;;;;;;8.97;74.10;100192.34;5151324;27;42835;-85
2022/02/08 11:18:31;;;;;;;0.70;0.60;;;;;;;8.81;73.96;100123.31;5136472;27;42297;-85
2022/02/08 11:21:06;;;;;;;0.60;0.60;;;;;;;8.91;73.65;100123.84;5136600;27;44043;-86
2022/02/08 11:23:57;;;;;;;0.80;0.80;;;;;;;9.30;73.13;100169.13;5120992;27;42949;-84
2022/02/08 11:27:13;;;;;;;1.23;0.60;;;;;;;9.22;72.90;100158.84;5134056;27;39071;-83
2022/02/08 11:29:54;;;;;;;0.50;0.50;;;;;;;9.27;72.43;100161.34;5137439;27;41421;-84
2022/02/08 11:32:52;;;;;;;1.10;0.60;;;;;;;9.24;72.51;100157.00;5119296;27;41743;-84
2022/02/08 11:45:05;;;;;;;0.97;0.60;;;;;;;9.03;72.64;100104.91;5131918;27;44255;-86
2022/02/08 11:48:09;;;;;;;0.87;0.70;;;;;;;9.25;72.69;100140.25;5098769;27;40999;-85
2022/02/08 11:53:32;;;;;;;0.47;0.47;;;;;;;9.65;71.78;100168.69;5075372;27;42583;-81
2022/02/08 11:59:24;;;;;;;0.50;0.50;;;;;;;9.50;71.19;100147.25;5113412;27;41453;-85
2022/02/08 12:04:47;;;;;;;2.30;0.73;;;;;;;9.63;71.02;100154.69;5071858;28;41113;-85
2022/02/08 12:07:28;;;;;;;0.87;0.87;;;;;;;9.51;70.97;100134.00;5112105;27;43671;-85
2022/02/08 12:10:03;;;;;;;1.70;0.80;;;;;;;9.58;70.76;100146.03;5095801;28;41196;-84
2022/02/08 12:33:30;;;;;;;0.67;0.67;;;;;;;9.30;71.37;100150.63;5070913;28;43233;-86
2022/02/08 12:56:05;;;;;;;1.13;0.80;;;;;;;9.28;71.52;100157.75;5069613;28;40810;-86
2022/02/08 12:58:55;;;;;;;1.03;1.00;;;;;;;9.25;71.49;100139.38;5070472;28;43029;-84
2022/02/08 13:01:52;;;;;;;2.13;0.80;;;;;;;9.34;71.40;100146.97;5070035;28;42199;-85
2022/02/08 13:04:33;;;;;;;1.23;0.90;;;;;;;9.15;71.14;100120.31;5070465;28;40499;-86
2022/02/08 14:08:20;;;;;;;1.83;0.70;;;;;;;9.83;70.12;100153.91;5040812;28;42147;-85
2022/02/08 14:16:33;;;;;;;1.00;0.70;;;;;;;9.88;69.87;100151.94;5051762;28;41592;-87
2022/02/08 14:19:25;;;;;;;0.60;0.60;;;;;;;9.79;70.18;100139.06;5055547;28;43590;-87
2022/02/08 14:21:57;;;;;;;1.20;0.90;;;;;;;9.84;70.41;100149.47;5054794;28;41258;-87
2022/02/08 14:24:36;;;;;;;0.70;0.70;;;;;;;9.64;70.34;100143.16;5055423;28;41973;-88
2022/02/08 14:29:53;;;;;;;1.00;1.00;;;;;;;9.69;70.71;100159.72;5055551;28;42448;-86
2022/02/08 14:32:24;;;;;;;0.90;0.80;;;;;;;9.66;70.98;100166.91;5054744;28;40022;-86
2022/02/08 15:00:17;;;;;;;0.50;0.50;;;;;;;9.34;72.28;100139.91;5067521;28;45113;-85
2022/02/08 15:08:16;;;;;;;0.60;0.60;;;;;;;9.19;73.32;100123.72;5071561;28;41096;-85
2022/02/08 15:10:49;;;;;;;0.83;0.83;;;;;;;9.25;73.31;100145.53;5054874;28;43547;-86
2022/02/08 15:13:20;;;;;;;0.70;0.70;;;;;;;9.13;73.38;100126.59;5055142;28;42306;-83
2022/02/08 15:18:34;;;;;;;1.60;0.80;;;;;;;9.09;73.88;100131.13;5054621;28;40673;-86
2022/02/08 15:21:04;;;;;;;0.80;0.70;;;;;;;9.07;73.77;100118.88;5055186;28;43699;-86
2022/02/08 15:23:32;;;;;;;2.03;0.77;;;;;;;8.97;74.33;100127.16;5055081;28;41427;-87
2022/02/08 15:26:00;;;;;;;0.70;0.70;;;;;;;9.00;74.35;100127.06;5054792;28;42372;-85
2022/02/08 15:28:28;;;;;;;1.20;0.83;;;;;;;8.90;74.33;100119.50;5059303;28;40958;-85
2022/02/08 15:30:56;;;;;;;1.00;1.00;;;;;;;9.02;74.45;100135.75;5059477;28;41525;-83
2022/02/08 15:33:25;;;;;;;0.60;0.60;;;;;;;9.07;74.47;100154.09;5059219;28;43152;-85
2022/02/08 15:35:54;;;;;;;0.60;0.60;;;;;;;8.97;74.43;100137.72;5061688;28;38715;-88
2022/02/08 15:38:28;;;;;;;1.00;0.80;;;;;;;9.04;74.64;100153.34;5063084;28;40459;-86
2022/02/08 15:40:56;;;;;;;1.63;0.87;;;;;;;8.91;74.45;100137.91;5062005;28;41731;-86
2022/02/08 15:43:24;;;;;;;0.73;0.60;;;;;;;9.00;74.50;100164.03;5054714;28;41700;-88
2022/02/08 15:45:55;;;;;;;1.63;0.73;;;;;;;8.97;74.63;100169.44;5053994;28;40244;-86
2022/02/08 15:48:24;;;;;;;0.87;0.87;;;;;;;8.64;75.07;100104.56;5054610;28;40853;-84
2022/02/08 15:51:16;;;;;;;1.60;0.67;;;;;;;8.84;74.92;100141.72;5055450;28;41709;-85
2022/02/08 15:56:40;;;;;;;0.63;0.63;;;;;;;8.86;75.17;100163.66;5065959;28;40625;-85
2022/02/08 16:07:25;;;;;;;1.17;0.80;;;;;;;8.64;75.78;100149.47;5054005;28;40330;-86
2022/02/08 16:09:59;;;;;;;0.57;0.57;;;;;;;8.63;75.93;100153.03;5055129;28;40430;-86
2022/02/08 16:12:46;;;;;;;0.53;0.53;;;;;;;8.61;76.34;100150.44;5053540;28;41853;-83
2022/02/08 16:18:16;;;;;;;0.97;0.90;;;;;;;8.57;76.64;100154.06;5056977;28;39194;-85
2022/02/08 16:21:03;;;;;;;1.13;1.03;;;;;;;8.55;76.58;100160.31;5070746;28;41037;-85
2022/02/08 16:26:30;;;;;;;0.60;0.60;;;;;;;8.56;76.61;100162.91;5068814;28;43097;-84
2022/02/08 16:29:08;;;;;;;1.00;0.90;;;;;;;8.63;76.67;100182.06;5070526;28;40797;-85
